sensor_id;sensor_type;location;lat;lon;timestamp;pressure;altitude;pressure_sealevel;temperature;humidity
64544;BME280;50936;51.660;5.616;2023-03-15T00:01:59;100821.53;;;0.80;100.00
64544;BME280;50936;51.660;5.616;2023-03-15T00:04:27;100821.69;;;0.75;100.00
64544;BME280;50936;51.660;5.616;2023-03-15T00:06:54;100811.94;;;0.74;100.00
64544;BME280;50936;51.660;5.616;2023-03-15T00:09:21;100814.56;;;0.76;100.00
64544;BME280;50936;51.660;5.616;2023-03-15T00:11:50;100812.69;;;0.80;100.00
64544;BME280;50936;51.660;5.616;2023-03-15T00:14:20;100818.63;;;0.88;100.00
64544;BME280;50936;51.660;5.616;2023-03-15T00:16:47;100823.69;;;0.97;100.00
64544;BME280;50936;51.660;5.616;2023-03-15T00:19:14;100818.19;;;1.03;100.00
64544;BME280;50936;51.660;5.616;2023-03-15T00:21:42;100816.28;;;1.08;100.00
64544;BME280;50936;51.660;5.616;2023-03-15T00:24:09;100829.41;;;1.13;100.00
64544;BME280;50936;51.660;5.616;2023-03-15T00:26:37;100826.72;;;1.14;100.00
64544;BME280;50936;51.660;5.616;2023-03-15T00:29:07;100820.38;;;1.19;100.00
64544;BME280;50936;51.660;5.616;2023-03-15T00:31:34;100831.84;;;1.21;100.00
64544;BME280;50936;51.660;5.616;2023-03-15T00:34:01;100829.91;;;1.26;100.00
64544;BME280;50936;51.660;5.616;2023-03-15T00:36:28;100822.75;;;1.28;100.00
64544;BME280;50936;51.660;5.616;2023-03-15T00:38:55;100816.44;;;1.32;100.00
64544;BME280;50936;51.660;5.616;2023-03-15T00:41:23;100819.09;;;1.32;100.00
64544;BME280;50936;51.660;5.616;2023-03-15T00:43:50;100827.88;;;1.34;100.00
64544;BME280;50936;51.660;5.616;2023-03-15T00:46:18;100831.47;;;1.33;100.00
64544;BME280;50936;51.660;5.616;2023-03-15T00:48:49;100834.97;;;1.33;100.00
64544;BME280;50936;51.660;5.616;2023-03-15T00:51:21;100838.41;;;1.37;100.00
64544;BME280;50936;51.660;5.616;2023-03-15T00:53:51;100836.53;;;1.41;100.00
64544;BME280;50936;51.660;5.616;2023-03-15T00:56:23;100839.97;;;1.44;100.00
64544;BME280;50936;51.660;5.616;2023-03-15T00:58:52;100843.56;;;1.43;100.00
64544;BME280;50936;51.660;5.616;2023-03-15T01:01:22;100855.00;;;1.47;100.00
64544;BME280;50936;51.660;5.616;2023-03-15T01:03:52;100864.56;;;1.52;100.00
64544;BME280;50936;51.660;5.616;2023-03-15T01:06:25;100871.53;;;1.57;100.00
64544;BME280;50936;51.660;5.616;2023-03-15T01:08:53;100878.63;;;1.58;100.00
64544;BME280;50936;51.660;5.616;2023-03-15T01:11:25;100875.69;;;1.65;100.00
64544;BME280;50936;51.660;5.616;2023-03-15T01:13:55;100889.66;;;1.72;100.00
64544;BME280;50936;51.660;5.616;2023-03-15T01:16:25;100883.53;;;1.70;100.00
64544;BME280;50936;51.660;5.616;2023-03-15T01:18:54;100896.00;;;1.68;100.00
64544;BME280;50936;51.660;5.616;2023-03-15T01:21:22;100888.19;;;1.63;100.00
64544;BME280;50936;51.660;5.616;2023-03-15T01:23:50;100894.38;;;1.64;100.00
64544;BME280;50936;51.660;5.616;2023-03-15T01:26:20;100897.84;;;1.66;100.00
64544;BME280;50936;51.660;5.616;2023-03-15T01:28:48;100901.59;;;1.60;100.00
64544;BME280;50936;51.660;5.616;2023-03-15T01:31:21;100909.09;;;1.47;100.00
64544;BME280;50936;51.660;5.616;2023-03-15T01:33:50;100907.63;;;1.37;100.00
64544;BME280;50936;51.660;5.616;2023-03-15T01:36:18;100904.41;;;1.26;100.00
64544;BME280;50936;51.660;5.616;2023-03-15T01:38:45;100894.13;;;1.13;100.00
64544;BME280;50936;51.660;5.616;2023-03-15T01:41:15;100910.47;;;1.01;100.00
64544;BME280;50936;51.660;5.616;2023-03-15T01:43:43;100908.97;;;0.91;100.00
64544;BME280;50936;51.660;5.616;2023-03-15T01:46:33;100921.50;;;0.86;100.00
64544;BME280;50936;51.660;5.616;2023-03-15T01:52:02;100911.06;;;0.80;100.00
64544;BME280;50936;51.660;5.616;2023-03-15T01:54:57;100915.59;;;0.76;100.00
64544;BME280;50936;51.660;5.616;2023-03-15T01:57:31;100912.91;;;0.77;100.00
64544;BME280;50936;51.660;5.616;2023-03-15T02:00:09;100912.91;;;0.77;100.00
64544;BME280;50936;51.660;5.616;2023-03-15T02:03:00;100910.25;;;0.77;100.00
64544;BME280;50936;51.660;5.616;2023-03-15T02:05:59;100905.75;;;0.80;100.00
64544;BME280;50936;51.660;5.616;2023-03-15T02:08:41;100908.22;;;0.86;100.00
64544;BME280;50936;51.660;5.616;2023-03-15T02:11:12;100908.09;;;0.90;100.00
64544;BME280;50936;51.660;5.616;2023-03-15T02:13:43;100907.25;;;0.90;100.00
64544;BME280;50936;51.660;5.616;2023-03-15T02:16:10;100905.56;;;0.86;100.00
64544;BME280;50936;51.660;5.616;2023-03-15T02:18:45;100907.41;;;0.84;100.00
64544;BME280;50936;51.660;5.616;2023-03-15T02:26:50;100911.84;;;0.83;100.00
64544;BME280;50936;51.660;5.616;2023-03-15T02:29:22;100913.69;;;0.81;100.00
64544;BME280;50936;51.660;5.616;2023-03-15T02:31:52;100912.81;;;0.81;100.00
64544;BME280;50936;51.660;5.616;2023-03-15T02:34:23;100917.25;;;0.80;100.00
64544;BME280;50936;51.660;5.616;2023-03-15T02:36:51;100912.81;;;0.81;100.00
64544;BME280;50936;51.660;5.616;2023-03-15T02:39:20;100919.78;;;0.85;100.00
64544;BME280;50936;51.660;5.616;2023-03-15T02:41:53;100921.50;;;0.86;100.00
64544;BME280;50936;51.660;5.616;2023-03-15T02:44:35;100921.50;;;0.86;100.00
64544;BME280;50936;51.660;5.616;2023-03-15T02:47:09;100928.53;;;0.90;100.00
64544;BME280;50936;51.660;5.616;2023-03-15T02:49:42;100922.31;;;0.89;100.00
64544;BME280;50936;51.660;5.616;2023-03-15T02:52:12;100928.53;;;0.90;100.00
64544;BME280;50936;51.660;5.616;2023-03-15T02:54:40;100929.34;;;0.92;100.00
64544;BME280;50936;51.660;5.616;2023-03-15T02:57:10;100930.16;;;0.94;100.00
64544;BME280;50936;51.660;5.616;2023-03-15T02:59:43;100939.84;;;0.96;100.00
64544;BME280;50936;51.660;5.616;2023-03-15T03:02:11;100946.00;;;0.97;100.00
64544;BME280;50936;51.660;5.616;2023-03-15T03:04:40;100938.97;;;0.96;100.00
64544;BME280;50936;51.660;5.616;2023-03-15T03:07:08;100945.97;;;0.99;100.00
64544;BME280;50936;51.660;5.616;2023-03-15T03:09:43;100940.63;;;1.00;100.00
64544;BME280;50936;51.660;5.616;2023-03-15T03:12:12;100944.09;;;1.02;100.00
64544;BME280;50936;51.660;5.616;2023-03-15T03:14:39;100965.22;;;1.08;100.00
64544;BME280;50936;51.660;5.616;2023-03-15T03:17:12;100970.44;;;1.11;100.00
64544;BME280;50936;51.660;5.616;2023-03-15T03:19:41;100966.03;;;1.12;100.00
64544;BME280;50936;51.660;5.616;2023-03-15T03:22:09;100981.00;;;1.14;100.00
64544;BME280;50936;51.660;5.616;2023-03-15T03:24:39;100982.84;;;1.12;100.00
64544;BME280;50936;51.660;5.616;2023-03-15T03:27:14;100986.41;;;1.11;100.00
64544;BME280;50936;51.660;5.616;2023-03-15T03:29:43;100982.91;;;1.09;100.00
64544;BME280;50936;51.660;5.616;2023-03-15T03:32:11;100995.34;;;1.09;100.00
64544;BME280;50936;51.660;5.616;2023-03-15T03:34:38;100995.47;;;1.04;100.00
64544;BME280;50936;51.660;5.616;2023-03-15T03:37:05;101004.47;;;1.00;100.00
64544;BME280;50936;51.660;5.616;2023-03-15T03:39:51;101013.44;;;0.96;100.00
64544;BME280;50936;51.660;5.616;2023-03-15T03:42:18;100997.56;;;0.93;100.00
64544;BME280;50936;51.660;5.616;2023-03-15T03:44:45;101011.78;;;0.92;100.00
64544;BME280;50936;51.660;5.616;2023-03-15T03:47:13;101015.34;;;0.91;100.00
64544;BME280;50936;51.660;5.616;2023-03-15T03:49:39;101012.72;;;0.89;100.00
64544;BME280;50936;51.660;5.616;2023-03-15T03:52:06;101017.09;;;0.92;100.00
64544;BME280;50936;51.660;5.616;2023-03-15T03:54:34;101019.81;;;0.90;100.00
64544;BME280;50936;51.660;5.616;2023-03-15T03:57:01;101026.06;;;0.88;100.00
64544;BME280;50936;51.660;5.616;2023-03-15T03:59:32;101022.56;;;0.86;100.00
64544;BME280;50936;51.660;5.616;2023-03-15T04:02:03;101026.06;;;0.88;100.00
64544;BME280;50936;51.660;5.616;2023-03-15T04:04:30;101023.34;;;0.89;100.00
64544;BME280;50936;51.660;5.616;2023-03-15T04:06:58;101028.69;;;0.89;100.00
64544;BME280;50936;51.660;5.616;2023-03-15T04:09:30;101033.13;;;0.89;100.00
64544;BME280;50936;51.660;5.616;2023-03-15T04:11:57;101037.47;;;0.91;100.00
64544;BME280;50936;51.660;5.616;2023-03-15T04:14:24;101042.81;;;0.91;100.00
64544;BME280;50936;51.660;5.616;2023-03-15T04:16:51;101046.31;;;0.93;100.00
64544;BME280;50936;51.660;5.616;2023-03-15T04:19:22;101044.56;;;0.92;100.00
64544;BME280;50936;51.660;5.616;2023-03-15T04:21:49;101046.34;;;0.92;100.00
64544;BME280;50936;51.660;5.616;2023-03-15T04:24:36;101051.69;;;0.92;100.00
64544;BME280;50936;51.660;5.616;2023-03-15T04:27:08;101062.28;;;0.93;100.00
64544;BME280;50936;51.660;5.616;2023-03-15T04:29:58;101073.69;;;0.97;100.00
64544;BME280;50936;51.660;5.616;2023-03-15T04:33:03;101083.38;;;1.00;100.00
64544;BME280;50936;51.660;5.616;2023-03-15T04:35:50;101081.50;;;1.05;100.00
64544;BME280;50936;51.660;5.616;2023-03-15T04:38:29;101081.44;;;1.06;100.00
64544;BME280;50936;51.660;5.616;2023-03-15T04:41:05;101084.13;;;1.06;100.00
64544;BME280;50936;51.660;5.616;2023-03-15T04:43:55;101086.84;;;1.03;100.00
64544;BME280;50936;51.660;5.616;2023-03-15T04:46:43;101084.25;;;1.00;100.00
64544;BME280;50936;51.660;5.616;2023-03-15T04:49:29;101089.59;;;0.99;100.00
64544;BME280;50936;51.660;5.616;2023-03-15T04:52:15;101087.91;;;0.96;100.00
64544;BME280;50936;51.660;5.616;2023-03-15T04:55:08;101096.78;;;0.95;100.00
64544;BME280;50936;51.660;5.616;2023-03-15T04:57:53;101096.88;;;0.92;100.00
64544;BME280;50936;51.660;5.616;2023-03-15T05:00:39;101107.53;;;0.92;100.00
64544;BME280;50936;51.660;5.616;2023-03-15T05:03:38;101114.56;;;0.93;100.00
64544;BME280;50936;51.660;5.616;2023-03-15T05:06:11;101120.78;;;0.93;100.00
64544;BME280;50936;51.660;5.616;2023-03-15T05:08:38;101121.72;;;0.91;100.00
64544;BME280;50936;51.660;5.616;2023-03-15T05:11:30;101124.41;;;0.89;100.00
64544;BME280;50936;51.660;5.616;2023-03-15T05:14:20;101129.84;;;0.86;100.00
64544;BME280;50936;51.660;5.616;2023-03-15T05:17:04;101121.00;;;0.84;100.00
64544;BME280;50936;51.660;5.616;2023-03-15T05:19:52;101126.31;;;0.84;100.00
64544;BME280;50936;51.660;5.616;2023-03-15T05:22:34;101126.28;;;0.86;100.00
64544;BME280;50936;51.660;5.616;2023-03-15T05:25:30;101132.53;;;0.85;100.00
64544;BME280;50936;51.660;5.616;2023-03-15T05:28:08;101135.19;;;0.85;100.00
64544;BME280;50936;51.660;5.616;2023-03-15T05:31:07;101136.94;;;0.84;100.00
64544;BME280;50936;51.660;5.616;2023-03-15T05:34:12;101140.56;;;0.82;100.00
64544;BME280;50936;51.660;5.616;2023-03-15T05:36:58;101143.28;;;0.79;100.00
64544;BME280;50936;51.660;5.616;2023-03-15T05:39:55;101150.44;;;0.76;100.00
64544;BME280;50936;51.660;5.616;2023-03-15T05:42:45;101154.03;;;0.75;100.00
64544;BME280;50936;51.660;5.616;2023-03-15T05:45:31;101154.03;;;0.75;100.00
64544;BME280;50936;51.660;5.616;2023-03-15T05:48:18;101152.22;;;0.76;100.00
64544;BME280;50936;51.660;5.616;2023-03-15T05:50:54;101166.47;;;0.73;100.00
64544;BME280;50936;51.660;5.616;2023-03-15T05:53:36;101170.03;;;0.72;100.00
64544;BME280;50936;51.660;5.616;2023-03-15T05:56:22;101177.19;;;0.70;100.00
64544;BME280;50936;51.660;5.616;2023-03-15T05:59:15;101176.31;;;0.70;100.00
64544;BME280;50936;51.660;5.616;2023-03-15T06:02:17;101182.56;;;0.67;100.00
64544;BME280;50936;51.660;5.616;2023-03-15T06:04:57;101186.03;;;0.69;100.00
64544;BME280;50936;51.660;5.616;2023-03-15T06:07:26;101189.53;;;0.71;100.00
64544;BME280;50936;51.660;5.616;2023-03-15T06:09:53;101187.75;;;0.73;100.00
64544;BME280;50936;51.660;5.616;2023-03-15T06:12:20;101196.56;;;0.75;100.00
64544;BME280;50936;51.660;5.616;2023-03-15T06:14:47;101190.28;;;0.78;100.00
64544;BME280;50936;51.660;5.616;2023-03-15T06:17:14;101200.06;;;0.77;100.00
64544;BME280;50936;51.660;5.616;2023-03-15T06:19:43;101199.19;;;0.77;100.00
64544;BME280;50936;51.660;5.616;2023-03-15T06:22:10;101203.56;;;0.80;100.00
64544;BME280;50936;51.660;5.616;2023-03-15T06:24:46;101209.66;;;0.83;100.00
64544;BME280;50936;51.660;5.616;2023-03-15T06:27:13;101213.00;;;0.91;100.00
64544;BME280;50936;51.660;5.616;2023-03-15T06:29:40;101220.84;;;0.99;100.00
64544;BME280;50936;51.660;5.616;2023-03-15T06:32:07;101223.34;;;1.05;100.00
64544;BME280;50936;51.660;5.616;2023-03-15T06:34:37;101232.84;;;1.15;100.00
64544;BME280;50936;51.660;5.616;2023-03-15T06:37:04;101232.41;;;1.34;100.00
64544;BME280;50936;51.660;5.616;2023-03-15T06:39:32;101239.03;;;1.52;100.00
64544;BME280;50936;51.660;5.616;2023-03-15T06:42:00;101245.75;;;1.67;100.00
64544;BME280;50936;51.660;5.616;2023-03-15T06:44:31;101250.06;;;1.72;100.00
64544;BME280;50936;51.660;5.616;2023-03-15T06:47:02;101243.59;;;1.81;100.00
64544;BME280;50936;51.660;5.616;2023-03-15T06:49:29;101254.00;;;1.90;100.00
64544;BME280;50936;51.660;5.616;2023-03-15T06:51:57;101257.41;;;1.96;100.00
64544;BME280;50936;51.660;5.616;2023-03-15T06:54:24;101263.28;;;2.08;100.00
64544;BME280;50936;51.660;5.616;2023-03-15T06:56:52;101270.03;;;2.22;100.00
64544;BME280;50936;51.660;5.616;2023-03-15T06:59:19;101272.28;;;2.36;100.00
64544;BME280;50936;51.660;5.616;2023-03-15T07:01:46;101273.69;;;2.49;100.00
64544;BME280;50936;51.660;5.616;2023-03-15T07:04:13;101280.31;;;2.65;100.00
64544;BME280;50936;51.660;5.616;2023-03-15T07:06:40;101283.44;;;2.80;100.00
64544;BME280;50936;51.660;5.616;2023-03-15T07:09:07;101298.81;;;3.01;100.00
64544;BME280;50936;51.660;5.616;2023-03-15T07:11:34;101298.81;;;3.30;100.00
64544;BME280;50936;51.660;5.616;2023-03-15T07:14:01;101306.78;;;3.59;100.00
64544;BME280;50936;51.660;5.616;2023-03-15T07:16:28;101316.66;;;3.82;100.00
64544;BME280;50936;51.660;5.616;2023-03-15T07:18:55;101320.47;;;4.02;100.00
64544;BME280;50936;51.660;5.616;2023-03-15T07:21:25;101319.91;;;4.17;100.00
64544;BME280;50936;51.660;5.616;2023-03-15T07:23:53;101324.63;;;4.36;100.00
64544;BME280;50936;51.660;5.616;2023-03-15T07:26:20;101336.31;;;4.33;100.00
64544;BME280;50936;51.660;5.616;2023-03-15T07:28:47;101335.44;;;4.33;100.00
64544;BME280;50936;51.660;5.616;2023-03-15T07:31:14;101339.00;;;4.82;100.00
64544;BME280;50936;51.660;5.616;2023-03-15T07:33:41;101338.28;;;5.24;100.00
64544;BME280;50936;51.660;5.616;2023-03-15T07:36:08;101346.94;;;5.53;100.00
64544;BME280;50936;51.660;5.616;2023-03-15T07:38:35;101354.31;;;5.92;100.00
64544;BME280;50936;51.660;5.616;2023-03-15T07:41:04;101357.78;;;5.94;100.00
64544;BME280;50936;51.660;5.616;2023-03-15T07:43:32;101355.66;;;5.80;100.00
64544;BME280;50936;51.660;5.616;2023-03-15T07:46:16;101358.72;;;5.49;100.00
64544;BME280;50936;51.660;5.616;2023-03-15T07:48:43;101358.25;;;5.15;100.00
64544;BME280;50936;51.660;5.616;2023-03-15T07:51:10;101362.13;;;4.83;100.00
64544;BME280;50936;51.660;5.616;2023-03-15T07:53:37;101358.66;;;4.56;100.00
64544;BME280;50936;51.660;5.616;2023-03-15T07:56:04;101374.63;;;4.34;100.00
64544;BME280;50936;51.660;5.616;2023-03-15T07:58:31;101378.66;;;4.20;100.00
64544;BME280;50936;51.660;5.616;2023-03-15T08:00:58;101375.47;;;4.09;100.00
64544;BME280;50936;51.660;5.616;2023-03-15T08:03:25;101378.56;;;3.97;100.00
64544;BME280;50936;51.660;5.616;2023-03-15T08:05:53;101385.16;;;3.87;100.00
64544;BME280;50936;51.660;5.616;2023-03-15T08:08:21;101382.88;;;3.74;100.00
64544;BME280;50936;51.660;5.616;2023-03-15T08:10:47;101389.53;;;3.61;100.00
64544;BME280;50936;51.660;5.616;2023-03-15T08:13:14;101387.13;;;3.52;100.00
64544;BME280;50936;51.660;5.616;2023-03-15T08:15:44;101404.16;;;3.47;100.00
64544;BME280;50936;51.660;5.616;2023-03-15T08:18:13;101407.88;;;3.43;100.00
64544;BME280;50936;51.660;5.616;2023-03-15T08:20:40;101409.78;;;3.38;100.00
64544;BME280;50936;51.660;5.616;2023-03-15T08:23:07;101405.31;;;3.39;100.00
64544;BME280;50936;51.660;5.616;2023-03-15T08:25:34;101408.06;;;3.37;100.00
64544;BME280;50936;51.660;5.616;2023-03-15T08:28:06;101406.31;;;3.36;100.00
64544;BME280;50936;51.660;5.616;2023-03-15T08:30:33;101413.50;;;3.34;100.00
64544;BME280;50936;51.660;5.616;2023-03-15T08:33:01;101415.25;;;3.35;100.00
64544;BME280;50936;51.660;5.616;2023-03-15T08:35:29;101414.31;;;3.36;100.00
64544;BME280;50936;51.660;5.616;2023-03-15T08:38:01;101427.66;;;3.36;100.00
64544;BME280;50936;51.660;5.616;2023-03-15T08:40:29;101433.09;;;3.33;100.00
64544;BME280;50936;51.660;5.616;2023-03-15T08:42:56;101428.72;;;3.31;100.00
64544;BME280;50936;51.660;5.616;2023-03-15T08:45:24;101431.28;;;3.35;100.00
64544;BME280;50936;51.660;5.616;2023-03-15T08:47:57;101428.44;;;3.40;100.00
64544;BME280;50936;51.660;5.616;2023-03-15T08:50:26;101435.47;;;3.42;100.00
64544;BME280;50936;51.660;5.616;2023-03-15T08:52:54;101441.69;;;3.44;100.00
64544;BME280;50936;51.660;5.616;2023-03-15T08:55:21;101445.25;;;3.43;100.00
64544;BME280;50936;51.660;5.616;2023-03-15T08:57:48;101449.69;;;3.44;100.00
64544;BME280;50936;51.660;5.616;2023-03-15T09:00:15;101455.03;;;3.44;100.00
64544;BME280;50936;51.660;5.616;2023-03-15T09:02:51;101456.56;;;3.52;100.00
64544;BME280;50936;51.660;5.616;2023-03-15T09:05:19;101453.78;;;3.56;100.00
64544;BME280;50936;51.660;5.616;2023-03-15T09:07:47;101453.72;;;3.58;100.00
64544;BME280;50936;51.660;5.616;2023-03-15T09:10:15;101453.72;;;3.58;100.00
64544;BME280;50936;51.660;5.616;2023-03-15T09:12:45;101459.66;;;3.67;100.00
64544;BME280;50936;51.660;5.616;2023-03-15T09:15:14;101458.69;;;3.70;100.00
64544;BME280;50936;51.660;5.616;2023-03-15T09:17:42;101452.38;;;3.73;100.00
64544;BME280;50936;51.660;5.616;2023-03-15T09:20:11;101458.13;;;3.89;100.00
64544;BME280;50936;51.660;5.616;2023-03-15T09:22:53;101466.84;;;3.94;100.00
64544;BME280;50936;51.660;5.616;2023-03-15T09:25:22;101458.78;;;3.95;100.00
64544;BME280;50936;51.660;5.616;2023-03-15T09:27:52;101462.88;;;4.07;100.00
64544;BME280;50936;51.660;5.616;2023-03-15T09:30:22;101466.38;;;4.09;100.00
64544;BME280;50936;51.660;5.616;2023-03-15T09:32:53;101467.06;;;4.16;100.00
64544;BME280;50936;51.660;5.616;2023-03-15T09:35:20;101460.50;;;4.24;100.00
64544;BME280;50936;51.660;5.616;2023-03-15T09:37:49;101465.66;;;4.31;100.00
64544;BME280;50936;51.660;5.616;2023-03-15T09:40:19;101468.22;;;4.34;100.00
64544;BME280;50936;51.660;5.616;2023-03-15T09:45:54;101466.44;;;4.59;100.00
64544;BME280;50936;51.660;5.616;2023-03-15T09:54:10;101484.25;;;5.11;100.00
64544;BME280;50936;51.660;5.616;2023-03-15T09:56:45;101478.53;;;5.21;100.00
64544;BME280;50936;51.660;5.616;2023-03-15T09:59:30;101479.66;;;5.39;100.00
64544;BME280;50936;51.660;5.616;2023-03-15T10:02:10;101481.50;;;5.37;100.00
64544;BME280;50936;51.660;5.616;2023-03-15T10:04:39;101481.50;;;5.37;100.00
64544;BME280;50936;51.660;5.616;2023-03-15T10:07:13;101482.91;;;5.48;100.00
64544;BME280;50936;51.660;5.616;2023-03-15T10:09:42;101489.66;;;5.58;100.00
64544;BME280;50936;51.660;5.616;2023-03-15T10:12:11;101485.56;;;5.71;100.00
64544;BME280;50936;51.660;5.616;2023-03-15T10:20:28;101484.22;;;6.29;96.49
64544;BME280;50936;51.660;5.616;2023-03-15T10:23:09;101480.41;;;6.34;100.00
64544;BME280;50936;51.660;5.616;2023-03-15T10:25:45;101498.78;;;6.86;99.07
64544;BME280;50936;51.660;5.616;2023-03-15T10:28:28;101498.19;;;7.40;90.85
64544;BME280;50936;51.660;5.616;2023-03-15T10:31:15;101488.34;;;7.78;89.62
64544;BME280;50936;51.660;5.616;2023-03-15T10:34:08;101495.38;;;8.00;87.04
64544;BME280;50936;51.660;5.616;2023-03-15T10:36:43;101499.00;;;8.18;86.42
64544;BME280;50936;51.660;5.616;2023-03-15T10:39:11;101501.78;;;8.53;86.93
64544;BME280;50936;51.660;5.616;2023-03-15T10:41:44;101496.50;;;8.69;81.93
64544;BME280;50936;51.660;5.616;2023-03-15T10:44:35;101500.78;;;8.36;81.67
64544;BME280;50936;51.660;5.616;2023-03-15T10:47:05;101500.38;;;8.07;79.54
64544;BME280;50936;51.660;5.616;2023-03-15T10:49:54;101498.59;;;7.70;78.74
64544;BME280;50936;51.660;5.616;2023-03-15T10:55:09;101508.69;;;7.46;95.17
64544;BME280;50936;51.660;5.616;2023-03-15T10:57:54;101510.00;;;7.94;99.82
64544;BME280;50936;51.660;5.616;2023-03-15T11:00:34;101513.38;;;8.72;85.54
64544;BME280;50936;51.660;5.616;2023-03-15T11:03:14;101519.03;;;9.36;79.45
64544;BME280;50936;51.660;5.616;2023-03-15T11:05:56;101525.34;;;9.52;70.21
64544;BME280;50936;51.660;5.616;2023-03-15T11:11:07;101529.41;;;10.09;70.12
64544;BME280;50936;51.660;5.616;2023-03-15T11:13:38;101529.44;;;10.25;66.97
64544;BME280;50936;51.660;5.616;2023-03-15T11:19:02;101531.84;;;10.29;64.83
64544;BME280;50936;51.660;5.616;2023-03-15T11:21:40;101549.81;;;9.98;63.51
64544;BME280;50936;51.660;5.616;2023-03-15T11:24:36;101545.44;;;9.80;66.21
64544;BME280;50936;51.660;5.616;2023-03-15T11:27:10;101543.63;;;9.63;70.82
64544;BME280;50936;51.660;5.616;2023-03-15T11:29:43;101548.38;;;9.75;68.93
64544;BME280;50936;51.660;5.616;2023-03-15T11:32:23;101545.69;;;9.91;66.50
64544;BME280;50936;51.660;5.616;2023-03-15T11:34:54;101548.72;;;9.69;63.71
64544;BME280;50936;51.660;5.616;2023-03-15T11:40:11;101542.38;;;9.02;64.49
64544;BME280;50936;51.660;5.616;2023-03-15T11:43:00;101539.34;;;8.56;66.58
64544;BME280;50936;51.660;5.616;2023-03-15T11:48:43;101533.47;;;8.28;67.88
64544;BME280;50936;51.660;5.616;2023-03-15T11:51:16;101536.56;;;8.38;68.39
64544;BME280;50936;51.660;5.616;2023-03-15T11:56:47;101539.94;;;9.48;66.79
64544;BME280;50936;51.660;5.616;2023-03-15T11:59:33;101537.94;;;9.85;62.00
64544;BME280;50936;51.660;5.616;2023-03-15T12:04:44;101534.25;;;9.54;60.92
64544;BME280;50936;51.660;5.616;2023-03-15T12:09:49;101521.53;;;9.56;62.89
64544;BME280;50936;51.660;5.616;2023-03-15T12:15:04;101533.03;;;10.71;70.29
64544;BME280;50936;51.660;5.616;2023-03-15T12:20:29;101523.84;;;12.06;56.63
64544;BME280;50936;51.660;5.616;2023-03-15T12:23:12;101535.47;;;11.94;53.88
64544;BME280;50936;51.660;5.616;2023-03-15T12:29:11;101529.16;;;11.36;51.35
64544;BME280;50936;51.660;5.616;2023-03-15T12:34:24;101535.97;;;11.58;51.73
64544;BME280;50936;51.660;5.616;2023-03-15T12:36:58;101536.31;;;11.37;51.12
64544;BME280;50936;51.660;5.616;2023-03-15T12:40:00;101530.88;;;11.37;52.15
64544;BME280;50936;51.660;5.616;2023-03-15T12:53:15;101507.06;;;10.38;50.14
64544;BME280;50936;51.660;5.616;2023-03-15T12:55:50;101526.63;;;10.58;51.26
64544;BME280;50936;51.660;5.616;2023-03-15T12:58:35;101529.66;;;10.98;50.09
64544;BME280;50936;51.660;5.616;2023-03-15T13:01:04;101538.75;;;11.42;49.75
64544;BME280;50936;51.660;5.616;2023-03-15T13:03:34;101531.13;;;11.91;44.48
64544;BME280;50936;51.660;5.616;2023-03-15T13:06:24;101520.38;;;11.75;44.93
64544;BME280;50936;51.660;5.616;2023-03-15T13:15:20;101536.69;;;11.31;44.58
64544;BME280;50936;51.660;5.616;2023-03-15T13:17:56;101525.28;;;11.26;43.63
64544;BME280;50936;51.660;5.616;2023-03-15T13:23:27;101530.13;;;11.49;44.34
64544;BME280;50936;51.660;5.616;2023-03-15T13:26:07;101521.44;;;11.59;42.98
64544;BME280;50936;51.660;5.616;2023-03-15T13:29:07;101528.78;;;11.71;43.21
64544;BME280;50936;51.660;5.616;2023-03-15T13:31:36;101523.56;;;11.68;42.51
64544;BME280;50936;51.660;5.616;2023-03-15T13:34:15;101514.69;;;11.66;42.76
64544;BME280;50936;51.660;5.616;2023-03-15T13:36:53;101515.66;;;11.50;41.84
64544;BME280;50936;51.660;5.616;2023-03-15T13:39:30;101512.94;;;11.36;44.99
64544;BME280;50936;51.660;5.616;2023-03-15T13:42:00;101514.88;;;11.34;42.05
64544;BME280;50936;51.660;5.616;2023-03-15T13:44:32;101514.34;;;11.13;42.35
64544;BME280;50936;51.660;5.616;2023-03-15T13:46:59;101517.09;;;10.97;41.73
64544;BME280;50936;51.660;5.616;2023-03-15T13:49:31;101516.75;;;11.03;44.29
64544;BME280;50936;51.660;5.616;2023-03-15T13:52:02;101526.06;;;11.28;43.92
64544;BME280;50936;51.660;5.616;2023-03-15T13:54:38;101528.56;;;11.74;43.30
64544;BME280;50936;51.660;5.616;2023-03-15T13:57:18;101533.66;;;11.94;43.83
64544;BME280;50936;51.660;5.616;2023-03-15T13:59:57;101533.25;;;12.01;40.71
64544;BME280;50936;51.660;5.616;2023-03-15T14:03:06;101528.56;;;11.74;40.69
64544;BME280;50936;51.660;5.616;2023-03-15T14:05:46;101519.22;;;11.65;42.16
64544;BME280;50936;51.660;5.616;2023-03-15T14:08:26;101531.19;;;11.75;42.66
64544;BME280;50936;51.660;5.616;2023-03-15T14:16:17;101528.38;;;11.48;43.77
64544;BME280;50936;51.660;5.616;2023-03-15T14:18:55;101536.13;;;11.40;41.93
64544;BME280;50936;51.660;5.616;2023-03-15T14:21:33;101525.78;;;11.32;40.61
64544;BME280;50936;51.660;5.616;2023-03-15T14:24:05;101534.84;;;11.31;41.24
64544;BME280;50936;51.660;5.616;2023-03-15T14:26:39;101540.72;;;11.24;40.52
64544;BME280;50936;51.660;5.616;2023-03-15T14:29:15;101531.09;;;11.34;41.52
64544;BME280;50936;51.660;5.616;2023-03-15T14:31:49;101537.31;;;11.50;41.61
64544;BME280;50936;51.660;5.616;2023-03-15T14:34:23;101535.16;;;11.55;42.46
64544;BME280;50936;51.660;5.616;2023-03-15T14:37:43;101534.56;;;11.79;41.56
64544;BME280;50936;51.660;5.616;2023-03-15T14:40:18;101537.13;;;11.97;40.68
64544;BME280;50936;51.660;5.616;2023-03-15T14:42:53;101539.81;;;11.97;40.44
64544;BME280;50936;51.660;5.616;2023-03-15T14:45:20;101533.84;;;11.91;40.97
64544;BME280;50936;51.660;5.616;2023-03-15T14:47:50;101538.25;;;11.64;40.26